Terminal Aerodrome Forecast
Issued by NWS Charleston, WV

Home | Current Version | Previous Version | Text Only | Print | Product List | Glossary On
Versions: 1 2 3 4 5 6 7 8 9 10 11 12 13 14 15 16 17 18 19
000
FTUS41 KRLX 290500
TAFEKN
TAF
KEKN 290530Z 2906/3006 00000KT 6SM -DZ BR SCT005 OVC010
     FM290700 00000KT 4SM -DZ BR OVC006
     FM291000 00000KT 2SM BR BKN008
     FM291800 00000KT 6SM BR BKN015
     FM292000 VRB03KT P6SM BKN025
     FM292300 VRB03KT P6SM BKN015
     FM300200 00000KT 5SM BR BKN015
     FM300500 00000KT 2SM BR BKN010=

USA.gov is the U.S. government's official web portal to all federal, state and local government web resources and services.